createdAt,value
2022-10-01T00:00:08.986Z,90.90
2022-10-01T00:05:12.586Z,85.30
2022-10-01T00:10:15.878Z,86.20
2022-10-01T00:15:19.781Z,89.30
2022-10-01T00:20:21.655Z,92.10
2022-10-01T00:25:25.608Z,85.80
2022-10-01T00:30:27.379Z,92.30
2022-10-01T00:35:29.246Z,86.00
2022-10-01T00:40:31.645Z,103.00
2022-10-01T00:45:33.616Z,105.40
2022-10-01T00:50:38.159Z,100.80
2022-10-01T00:55:43.214Z,93.60
2022-10-01T01:00:56.057Z,102.60
2022-10-01T01:05:58.110Z,102.40
2022-10-01T01:11:24.689Z,104.00
2022-10-01T01:16:41.561Z,95.40
2022-10-01T01:21:48.063Z,105.60
2022-10-01T01:26:56.535Z,98.20
2022-10-01T01:32:03.904Z,113.80
2022-10-01T01:37:12.043Z,110.70
2022-10-01T01:42:21.407Z,112.80
2022-10-01T01:47:29.593Z,110.10
2022-10-01T01:52:33.923Z,107.80
2022-10-01T01:57:44.316Z,119.10
2022-10-01T02:02:53.632Z,135.10
2022-10-01T02:08:28.285Z,104.60
2022-10-01T02:13:53.011Z,91.40
2022-10-01T02:19:05.985Z,93.50
2022-10-01T02:24:16.871Z,86.20
2022-10-01T02:29:22.225Z,87.70
2022-10-01T02:34:29.141Z,95.20
2022-10-01T02:39:33.836Z,89.70
2022-10-01T02:44:42.618Z,94.00
2022-10-01T02:49:49.911Z,100.10
2022-10-01T02:55:06.885Z,104.70
2022-10-01T03:00:12.213Z,112.00
2022-10-01T03:05:15.529Z,99.60
2022-10-01T03:10:17.718Z,95.30
2022-10-01T03:15:24.601Z,95.30
2022-10-01T03:20:49.474Z,95.30
2022-10-01T03:25:51.302Z,82.10
2022-10-01T03:30:53.106Z,83.60
2022-10-01T03:35:55.039Z,86.60
2022-10-01T03:40:57.021Z,84.20
2022-10-01T03:45:58.866Z,93.10
2022-10-01T03:51:02.222Z,101.40
2022-10-01T03:56:04.992Z,105.80
2022-10-01T04:01:06.739Z,112.90
2022-10-01T04:06:08.879Z,117.10
2022-10-01T04:11:11.723Z,129.20
2022-10-01T04:16:13.998Z,115.70
2022-10-01T04:21:15.760Z,117.40
2022-10-01T04:26:19.237Z,122.90
2022-10-01T04:31:27.172Z,120.80
2022-10-01T04:36:29.315Z,110.20
2022-10-01T04:41:32.276Z,100.70
2022-10-01T04:46:34.226Z,100.30
2022-10-01T04:51:36.868Z,101.30
2022-10-01T04:56:38.857Z,101.50
2022-10-01T05:01:42.273Z,114.80
2022-10-01T05:06:44.197Z,120.60
2022-10-01T05:11:46.046Z,113.80
2022-10-01T05:16:47.826Z,107.40
2022-10-01T05:21:49.721Z,120.00
2022-10-01T05:26:58.673Z,123.20
2022-10-01T05:32:01.012Z,124.70
2022-10-01T05:37:03.338Z,127.60
2022-10-01T05:42:06.519Z,123.70
2022-10-01T05:47:08.535Z,125.50
2022-10-01T05:52:11.955Z,93.30
2022-10-01T05:57:13.738Z,97.00
2022-10-01T06:02:15.547Z,87.70
2022-10-01T06:07:17.418Z,85.80
2022-10-01T06:12:20.031Z,87.70
2022-10-01T06:17:21.980Z,80.10
2022-10-01T06:22:23.753Z,73.00
2022-10-01T06:27:25.505Z,76.90
2022-10-01T06:32:30.513Z,92.30
2022-10-01T06:37:38.329Z,86.00
2022-10-01T06:42:40.001Z,79.60
2022-10-01T06:47:56.665Z,69.90
2022-10-01T06:52:59.286Z,71.80
2022-10-01T06:58:04.147Z,63.70
2022-10-01T07:03:11.094Z,65.30
2022-10-01T07:08:18.001Z,76.10
2022-10-01T07:13:21.020Z,72.10
2022-10-01T07:18:23.391Z,70.80
2022-10-01T07:23:25.372Z,73.50
2022-10-01T07:28:28.302Z,73.20
2022-10-01T07:33:30.971Z,59.10
2022-10-01T07:38:35.826Z,57.30
2022-10-01T07:43:43.870Z,68.60
2022-10-01T07:48:49.365Z,66.90
2022-10-01T07:53:51.207Z,75.70
2022-10-01T07:58:57.357Z,74.10
2022-10-01T08:03:59.206Z,72.00
2022-10-01T08:09:01.230Z,71.10
2022-10-01T08:14:04.760Z,68.10
2022-10-01T08:19:09.536Z,67.10
2022-10-01T08:24:11.371Z,60.90
2022-10-01T08:29:16.976Z,50.40
2022-10-01T08:34:19.357Z,44.40
2022-10-01T08:39:21.278Z,48.00
2022-10-01T08:44:33.897Z,41.80
2022-10-01T08:49:42.297Z,45.70
2022-10-01T08:54:54.775Z,45.00
2022-10-01T09:00:02.674Z,44.90
2022-10-01T09:05:11.198Z,41.90
2022-10-01T09:10:31.790Z,44.20
2022-10-01T09:15:46.216Z,50.00
2022-10-01T09:20:54.923Z,43.40
2022-10-01T09:26:00.045Z,41.10
2022-10-01T09:31:04.994Z,41.40
2022-10-01T09:36:52.034Z,40.90
2022-10-01T09:41:54.021Z,35.70
2022-10-01T09:46:56.169Z,35.40
2022-10-01T09:52:02.951Z,33.10
2022-10-01T09:57:12.572Z,34.70
2022-10-01T10:02:39.311Z,37.50
2022-10-01T10:08:05.903Z,39.00
2022-10-01T10:13:13.923Z,42.80
2022-10-01T10:18:21.569Z,42.40
2022-10-01T10:23:26.775Z,47.20
2022-10-01T10:28:52.909Z,40.40
2022-10-01T10:34:16.668Z,35.50
2022-10-01T10:39:31.536Z,31.90
2022-10-01T10:44:38.936Z,25.90
2022-10-01T10:49:54.187Z,23.50
2022-10-01T10:54:59.057Z,20.70
2022-10-01T11:00:12.981Z,21.70
2022-10-01T11:05:36.913Z,19.20
2022-10-01T11:11:22.091Z,19.90
2022-10-01T11:16:42.898Z,17.00
2022-10-01T11:27:15.676Z,18.00
2022-10-01T11:32:22.301Z,17.10
2022-10-01T11:38:07.132Z,16.00
2022-10-01T11:43:18.433Z,16.10
2022-10-01T11:48:38.301Z,20.70
2022-10-01T11:53:46.100Z,17.10
2022-10-01T11:58:59.523Z,20.00
2022-10-01T12:04:16.612Z,10.90
2022-10-01T12:09:31.371Z,21.40
2022-10-01T12:14:55.545Z,16.10
2022-10-01T12:19:59.875Z,12.20
2022-10-01T12:25:01.921Z,13.60
2022-10-01T12:30:16.597Z,15.50
2022-10-01T12:35:35.496Z,17.10
2022-10-01T12:41:16.040Z,15.20
2022-10-01T12:46:49.073Z,14.20
2022-10-01T12:52:07.865Z,13.60
2022-10-01T12:57:43.005Z,16.10
2022-10-01T13:03:13.952Z,14.50
2022-10-01T13:08:53.723Z,17.90
2022-10-01T13:14:10.917Z,15.20
2022-10-01T13:19:55.393Z,13.50
2022-10-01T13:25:19.904Z,41.70
2022-10-01T13:30:42.713Z,21.10
2022-10-01T13:35:55.024Z,24.80
2022-10-01T13:41:00.013Z,26.70
2022-10-01T13:46:11.042Z,33.40
2022-10-01T13:51:14.777Z,24.30
2022-10-01T13:56:31.065Z,19.20
2022-10-01T14:01:41.708Z,28.40
2022-10-01T14:06:50.710Z,24.80
2022-10-01T14:12:18.804Z,21.20
2022-10-01T14:17:30.602Z,23.00
2022-10-01T14:23:05.913Z,43.90
2022-10-01T14:28:52.014Z,25.30
2022-10-01T14:34:07.144Z,18.40
2022-10-01T14:39:19.271Z,18.60
2022-10-01T14:44:30.187Z,22.60
2022-10-01T14:49:33.040Z,19.50
2022-10-01T14:55:00.906Z,35.00
2022-10-01T15:05:21.661Z,31.30
2022-10-01T15:10:27.683Z,39.30
2022-10-01T15:15:40.788Z,32.20
2022-10-01T15:21:18.031Z,26.40
2022-10-01T15:26:31.364Z,27.90
2022-10-01T15:36:37.207Z,37.30
2022-10-01T15:41:40.364Z,37.10
2022-10-01T15:46:42.826Z,31.00
2022-10-01T15:52:11.917Z,39.50
2022-10-01T15:57:23.595Z,42.60
2022-10-01T16:02:30.234Z,28.30
2022-10-01T16:07:36.398Z,22.90
2022-10-01T16:12:38.726Z,32.80
2022-10-01T16:17:53.534Z,32.80
2022-10-01T16:23:34.803Z,26.00
2022-10-01T16:28:36.706Z,25.30
2022-10-01T16:33:38.427Z,31.80
2022-10-01T16:38:40.307Z,37.70
2022-10-01T16:43:42.105Z,29.70
2022-10-01T16:48:44.668Z,30.70
2022-10-01T16:53:47.133Z,30.40
2022-10-01T16:58:48.835Z,31.80
2022-10-01T17:03:50.505Z,32.40
2022-10-01T17:08:52.242Z,34.10
2022-10-01T17:13:54.351Z,46.40
2022-10-01T17:18:56.067Z,37.00
2022-10-01T17:24:03.135Z,48.20
2022-10-01T17:29:06.842Z,48.30
2022-10-01T17:34:08.611Z,48.80
2022-10-01T17:39:10.466Z,25.70
2022-10-01T17:44:12.293Z,24.10
2022-10-01T17:49:14.661Z,21.00
2022-10-01T17:54:16.562Z,10.70
2022-10-01T17:59:19.005Z,19.70
2022-10-01T18:04:20.870Z,21.00
2022-10-01T18:09:22.999Z,18.10
2022-10-01T18:14:24.854Z,18.10
2022-10-01T18:24:51.671Z,12.80
2022-10-01T18:29:53.415Z,15.10
2022-10-01T18:35:01.157Z,9.80
2022-10-01T18:40:13.046Z,10.20
2022-10-01T18:45:48.598Z,13.90
2022-10-01T18:50:57.150Z,21.60
2022-10-01T18:56:41.887Z,22.40
2022-10-01T19:02:15.949Z,16.40
2022-10-01T19:07:55.844Z,12.90
2022-10-01T19:13:28.912Z,12.70
2022-10-01T19:18:39.968Z,15.20
2022-10-01T19:24:04.774Z,10.20
2022-10-01T19:30:01.644Z,14.40
2022-10-01T19:35:11.583Z,23.40
2022-10-01T19:40:21.041Z,25.60
2022-10-01T19:45:29.542Z,27.40
2022-10-01T19:50:34.699Z,26.30
2022-10-01T19:55:38.835Z,22.80
2022-10-01T20:00:41.562Z,17.60
2022-10-01T20:05:46.146Z,18.30
2022-10-01T20:11:01.325Z,21.50
2022-10-01T20:16:22.838Z,23.40
2022-10-01T20:21:41.621Z,21.90
2022-10-01T20:26:54.535Z,18.30
2022-10-01T20:32:20.782Z,19.20
2022-10-01T20:37:35.175Z,20.90
2022-10-01T20:42:46.842Z,18.60
2022-10-01T20:47:58.057Z,20.90
2022-10-01T20:53:17.409Z,19.40
2022-10-01T20:58:31.092Z,20.90
2022-10-01T21:03:44.353Z,22.90
2022-10-01T21:09:14.283Z,22.10
2022-10-01T21:14:38.138Z,22.80
2022-10-01T21:20:02.748Z,21.20
2022-10-01T21:25:41.258Z,22.30
2022-10-01T21:31:11.191Z,21.70
2022-10-01T21:36:26.722Z,19.90
2022-10-01T21:41:37.848Z,19.10
2022-10-01T21:46:55.466Z,15.70
2022-10-01T21:52:27.486Z,14.50
2022-10-01T21:57:43.278Z,18.40
2022-10-01T22:03:05.438Z,17.00
2022-10-01T22:08:29.582Z,16.00
2022-10-01T22:13:35.793Z,14.90
2022-10-01T22:18:51.442Z,21.90
2022-10-01T22:24:02.930Z,20.60
2022-10-01T22:29:11.203Z,22.40
2022-10-01T22:34:22.403Z,14.50
2022-10-01T22:39:28.278Z,16.70
2022-10-01T22:44:30.094Z,15.40
2022-10-01T22:49:56.338Z,11.80
2022-10-01T22:55:21.449Z,14.80
2022-10-01T23:00:23.231Z,13.70
2022-10-01T23:05:43.388Z,14.20
2022-10-01T23:10:45.089Z,15.80
2022-10-01T23:16:07.910Z,15.60
2022-10-01T23:21:33.764Z,15.90
2022-10-01T23:26:42.724Z,15.70
2022-10-01T23:31:56.445Z,14.40
2022-10-01T23:37:29.733Z,11.30
2022-10-01T23:43:00.984Z,9.80
2022-10-01T23:48:18.637Z,15.40
2022-10-01T23:53:51.363Z,15.10
2022-10-01T23:59:27.922Z,18.20
